Time;durP1;ratioP1;P1;durP2;ratioP2;P2;SDS_P1;SDS_P2;PMS_P1;PMS_P2;Temp;Humidity;BMP_temperature;BMP_pressure;BME280_temperature;BME280_humidity;BME280_pressure;Samples;Min_cycle;Max_cycle;Signal;HPM_P1;HPM_P2
2023/06/10 00:00:51;;;;;;;;;13.25;10.00;;;;;;;;117817;1178;24732;-60
2023/06/10 00:03:41;;;;;;;;;14.00;12.50;;;;;;;;117828;1177;25579;-59
2023/06/10 00:06:10;;;;;;;;;16.75;11.25;;;;;;;;117808;1177;25771;-60
2023/06/10 00:08:39;;;;;;;;;14.25;12.50;;;;;;;;117858;1190;25640;-60
2023/06/10 00:11:08;;;;;;;;;13.67;11.67;;;;;;;;117854;1191;25545;-60
2023/06/10 00:13:36;;;;;;;;;11.67;11.33;;;;;;;;117874;1183;24741;-60
2023/06/10 00:16:05;;;;;;;;;14.50;13.00;;;;;;;;117882;1180;25649;-60
2023/06/10 00:18:36;;;;;;;;;13.00;10.50;;;;;;;;117829;1187;24981;-58
2023/06/10 00:21:05;;;;;;;;;16.00;12.75;;;;;;;;117816;1191;24972;-58
2023/06/10 00:23:37;;;;;;;;;13.75;10.25;;;;;;;;117911;1191;24968;-58
2023/06/10 00:26:06;;;;;;;;;14.00;12.25;;;;;;;;117934;1191;25083;-58
2023/06/10 00:28:34;;;;;;;;;9.67;9.67;;;;;;;;117938;1178;24852;-58
2023/06/10 00:31:04;;;;;;;;;12.00;9.50;;;;;;;;117905;1186;25507;-58
2023/06/10 00:33:32;;;;;;;;;16.25;14.75;;;;;;;;117888;1191;25506;-59
2023/06/10 00:36:01;;;;;;;;;14.33;12.00;;;;;;;;117917;1191;24927;-59
2023/06/10 00:38:30;;;;;;;;;10.00;9.50;;;;;;;;117935;1180;25484;-59
2023/06/10 00:40:59;;;;;;;;;10.00;10.00;;;;;;;;117889;1190;25295;-59
2023/06/10 00:43:28;;;;;;;;;11.00;10.33;;;;;;;;117812;1177;25157;-60
2023/06/10 00:45:57;;;;;;;;;11.75;10.50;;;;;;;;117838;1183;25153;-59
2023/06/10 00:48:26;;;;;;;;;11.50;10.50;;;;;;;;117836;1177;25045;-60
2023/06/10 00:50:55;;;;;;;;;11.25;11.25;;;;;;;;117829;1183;24973;-60
2023/06/10 00:53:24;;;;;;;;;9.67;9.67;;;;;;;;117777;1177;25611;-60
2023/06/10 00:55:53;;;;;;;;;10.67;9.33;;;;;;;;117824;1191;25235;-59
2023/06/10 00:58:23;;;;;;;;;15.00;13.00;;;;;;;;117949;1190;24763;-60
2023/06/10 01:00:51;;;;;;;;;13.67;12.00;;;;;;;;117932;1191;25157;-60
2023/06/10 01:03:20;;;;;;;;;9.67;9.00;;;;;;;;117944;1191;25062;-60
2023/06/10 01:06:01;;;;;;;;;9.00;8.00;;;;;;;;117891;1179;24741;-60
2023/06/10 01:08:45;;;;;;;;;16.25;13.00;;;;;;;;117916;1179;25520;-59
2023/06/10 01:11:19;;;;;;;;;11.67;11.67;;;;;;;;117895;1178;24818;-59
2023/06/10 01:13:51;;;;;;;;;11.50;10.50;;;;;;;;117891;1184;25479;-59
2023/06/10 01:16:22;;;;;;;;;11.25;8.50;;;;;;;;117812;1177;25382;-59
2023/06/10 01:18:52;;;;;;;;;10.67;9.00;;;;;;;;117886;1177;25179;-59
2023/06/10 01:21:24;;;;;;;;;12.00;10.75;;;;;;;;117837;1181;24733;-60
2023/06/10 01:23:55;;;;;;;;;10.67;10.67;;;;;;;;117827;1183;25547;-60
2023/06/10 01:26:30;;;;;;;;;11.33;7.00;;;;;;;;117800;1179;24825;-60
2023/06/10 01:29:18;;;;;;;;;9.75;9.75;;;;;;;;117812;1181;25509;-68
2023/06/10 01:31:56;;;;;;;;;12.00;11.00;;;;;;;;117893;1178;25019;-68
2023/06/10 01:34:26;;;;;;;;;10.75;8.50;;;;;;;;117872;1178;25183;-64
2023/06/10 01:36:57;;;;;;;;;14.50;11.75;;;;;;;;117899;1180;24715;-58
2023/06/10 01:39:26;;;;;;;;;14.33;10.00;;;;;;;;117877;1183;24758;-59
2023/06/10 01:41:55;;;;;;;;;10.33;9.00;;;;;;;;117857;1177;26427;-58
2023/06/10 01:44:24;;;;;;;;;13.75;11.25;;;;;;;;117884;1177;25385;-59
2023/06/10 01:46:52;;;;;;;;;11.50;10.75;;;;;;;;117810;1181;25031;-59
2023/06/10 01:49:23;;;;;;;;;11.00;8.00;;;;;;;;117922;1191;25411;-59
2023/06/10 01:51:52;;;;;;;;;9.33;9.33;;;;;;;;117887;1179;24879;-59
2023/06/10 01:54:21;;;;;;;;;12.25;11.50;;;;;;;;117941;1182;25220;-59
2023/06/10 01:56:49;;;;;;;;;8.67;8.00;;;;;;;;117876;1177;25296;-59
2023/06/10 01:59:18;;;;;;;;;15.75;10.00;;;;;;;;117800;1181;25346;-59
2023/06/10 02:01:46;;;;;;;;;15.25;11.25;;;;;;;;117818;1177;25584;-59
2023/06/10 02:04:16;;;;;;;;;11.25;10.25;;;;;;;;117789;1177;25185;-59
2023/06/10 02:06:45;;;;;;;;;12.75;11.50;;;;;;;;117858;1182;26418;-59
2023/06/10 02:09:14;;;;;;;;;10.25;10.25;;;;;;;;117922;1177;25569;-59
2023/06/10 02:11:42;;;;;;;;;9.33;8.00;;;;;;;;117916;1190;25312;-59
2023/06/10 02:14:11;;;;;;;;;8.00;8.00;;;;;;;;117889;1187;25654;-61
2023/06/10 02:16:39;;;;;;;;;13.00;12.50;;;;;;;;117903;1177;24787;-59
2023/06/10 02:19:08;;;;;;;;;9.00;8.67;;;;;;;;117900;1179;25044;-59
2023/06/10 02:21:37;;;;;;;;;11.00;11.00;;;;;;;;117878;1177;24952;-59
2023/06/10 02:24:06;;;;;;;;;10.33;10.33;;;;;;;;117800;1188;25939;-59
2023/06/10 02:26:35;;;;;;;;;8.00;8.00;;;;;;;;117896;1178;25053;-59
2023/06/10 02:29:03;;;;;;;;;10.33;8.67;;;;;;;;117912;1191;25611;-59
2023/06/10 02:31:35;;;;;;;;;14.00;14.00;;;;;;;;117921;1177;25423;-59
2023/06/10 02:34:03;;;;;;;;;10.50;10.50;;;;;;;;117905;1187;25259;-59
2023/06/10 02:36:32;;;;;;;;;12.00;9.00;;;;;;;;117886;1191;24989;-59
2023/06/10 02:39:01;;;;;;;;;7.00;7.00;;;;;;;;117831;1177;25232;-59
2023/06/10 02:41:29;;;;;;;;;10.75;10.25;;;;;;;;117826;1177;25054;-59
2023/06/10 02:43:58;;;;;;;;;11.00;11.00;;;;;;;;117837;1178;25431;-59
2023/06/10 02:46:28;;;;;;;;;11.25;10.00;;;;;;;;117958;1177;25108;-59
2023/06/10 02:48:57;;;;;;;;;15.33;12.00;;;;;;;;117925;1177;25687;-60
2023/06/10 02:51:25;;;;;;;;;11.25;9.25;;;;;;;;117880;1191;25192;-59
2023/06/10 02:53:54;;;;;;;;;17.33;15.00;;;;;;;;117890;1184;25367;-60
2023/06/10 02:56:23;;;;;;;;;10.00;8.50;;;;;;;;117879;1188;25637;-60
2023/06/10 02:58:51;;;;;;;;;12.25;11.00;;;;;;;;117864;1179;25047;-59
2023/06/10 03:01:20;;;;;;;;;8.67;8.67;;;;;;;;117843;1191;25657;-59
2023/06/10 03:03:50;;;;;;;;;14.00;11.00;;;;;;;;117932;1177;24818;-59
2023/06/10 03:06:19;;;;;;;;;10.67;9.33;;;;;;;;117851;1178;25591;-60
2023/06/10 03:08:47;;;;;;;;;11.00;9.33;;;;;;;;117829;1178;25669;-59
2023/06/10 03:11:16;;;;;;;;;10.33;9.00;;;;;;;;117811;1179;24996;-59
2023/06/10 03:13:45;;;;;;;;;10.25;9.25;;;;;;;;117819;1179;24762;-59
2023/06/10 03:16:14;;;;;;;;;13.33;11.33;;;;;;;;117831;1177;25637;-59
2023/06/10 03:18:42;;;;;;;;;8.25;7.75;;;;;;;;117839;1191;25122;-59
2023/06/10 03:21:11;;;;;;;;;11.50;8.50;;;;;;;;117931;1177;25151;-59
2023/06/10 03:23:40;;;;;;;;;10.67;8.67;;;;;;;;117945;1186;25122;-59
2023/06/10 03:26:09;;;;;;;;;13.50;10.75;;;;;;;;117887;1178;24895;-59
2023/06/10 03:28:38;;;;;;;;;8.00;6.75;;;;;;;;117739;1180;25535;-59
2023/06/10 03:31:07;;;;;;;;;16.00;10.00;;;;;;;;117827;1177;25522;-59
2023/06/10 03:33:35;;;;;;;;;11.00;9.67;;;;;;;;117887;1179;25589;-60
2023/06/10 03:36:04;;;;;;;;;12.33;10.67;;;;;;;;117842;1191;25339;-59
2023/06/10 03:38:33;;;;;;;;;12.00;11.33;;;;;;;;117923;1179;24784;-59
2023/06/10 03:41:01;;;;;;;;;8.50;8.50;;;;;;;;117888;1187;25435;-59
2023/06/10 03:43:31;;;;;;;;;12.33;10.33;;;;;;;;117885;1179;25308;-59
2023/06/10 03:45:59;;;;;;;;;10.50;9.25;;;;;;;;117840;1178;24994;-60
2023/06/10 03:48:28;;;;;;;;;12.50;10.25;;;;;;;;117801;1191;25591;-59
2023/06/10 03:50:57;;;;;;;;;13.00;12.00;;;;;;;;117831;1177;24717;-60
2023/06/10 03:53:26;;;;;;;;;11.00;9.00;;;;;;;;117960;1177;26380;-60
2023/06/10 03:55:54;;;;;;;;;13.25;11.75;;;;;;;;118030;1186;25087;-60
2023/06/10 03:58:23;;;;;;;;;17.25;11.50;;;;;;;;118056;1183;25114;-60
2023/06/10 04:00:52;;;;;;;;;10.00;10.00;;;;;;;;118057;1178;24901;-60
2023/06/10 04:03:21;;;;;;;;;10.33;10.00;;;;;;;;118069;1177;25467;-60
2023/06/10 04:05:50;;;;;;;;;11.00;9.67;;;;;;;;117966;1183;25540;-60
2023/06/10 04:08:18;;;;;;;;;7.33;4.00;;;;;;;;117918;1180;25381;-60
2023/06/10 04:10:47;;;;;;;;;14.50;10.50;;;;;;;;117950;1181;24805;-60
2023/06/10 04:13:16;;;;;;;;;12.75;8.75;;;;;;;;118065;1177;25559;-60
2023/06/10 04:15:44;;;;;;;;;12.00;9.50;;;;;;;;118078;1177;25211;-60
2023/06/10 04:18:13;;;;;;;;;11.25;11.25;;;;;;;;118042;1177;25209;-60
2023/06/10 04:20:41;;;;;;;;;11.00;9.33;;;;;;;;118094;1189;25283;-60
2023/06/10 04:23:10;;;;;;;;;13.25;11.00;;;;;;;;118052;1182;25100;-60
2023/06/10 04:25:39;;;;;;;;;11.25;8.75;;;;;;;;118041;1177;25702;-60
2023/06/10 04:28:08;;;;;;;;;8.00;8.00;;;;;;;;118047;1177;25361;-60
2023/06/10 04:30:36;;;;;;;;;10.25;8.50;;;;;;;;118036;1182;24902;-60
2023/06/10 04:33:06;;;;;;;;;14.25;9.00;;;;;;;;118058;1177;25264;-60
2023/06/10 04:35:35;;;;;;;;;11.00;11.00;;;;;;;;118053;1184;25696;-60
2023/06/10 04:38:04;;;;;;;;;11.33;11.33;;;;;;;;117997;1187;25202;-60
2023/06/10 04:40:33;;;;;;;;;11.67;10.00;;;;;;;;118019;1178;24683;-60
2023/06/10 04:43:01;;;;;;;;;11.33;8.33;;;;;;;;118017;1177;25298;-60
2023/06/10 04:45:30;;;;;;;;;12.00;9.00;;;;;;;;118048;1177;25698;-60
2023/06/10 04:47:59;;;;;;;;;10.67;10.00;;;;;;;;118062;1178;25516;-60
2023/06/10 04:50:28;;;;;;;;;17.33;12.67;;;;;;;;118047;1181;24973;-60
2023/06/10 04:52:57;;;;;;;;;12.00;12.00;;;;;;;;118037;1180;25524;-60
2023/06/10 04:55:26;;;;;;;;;11.00;9.00;;;;;;;;118155;1178;25355;-57
2023/06/10 04:57:55;;;;;;;;;10.50;9.25;;;;;;;;118173;1178;25318;-60
2023/06/10 05:00:23;;;;;;;;;13.00;10.33;;;;;;;;118154;1176;25239;-60
2023/06/10 05:02:52;;;;;;;;;11.50;8.00;;;;;;;;117969;1187;24985;-60
2023/06/10 05:05:21;;;;;;;;;13.75;11.50;;;;;;;;118222;1177;25366;-60
2023/06/10 05:07:50;;;;;;;;;11.00;10.00;;;;;;;;117836;1179;24803;-68
2023/06/10 05:10:18;;;;;;;;;10.33;10.33;;;;;;;;117972;1177;25637;-68
2023/06/10 05:12:47;;;;;;;;;9.33;9.00;;;;;;;;118046;1177;25477;-63
2023/06/10 05:15:15;;;;;;;;;9.25;9.00;;;;;;;;118060;1177;25035;-60
2023/06/10 05:17:44;;;;;;;;;13.33;10.33;;;;;;;;117992;1185;25433;-58
2023/06/10 05:20:13;;;;;;;;;11.00;10.33;;;;;;;;118075;1185;24915;-58
2023/06/10 05:22:42;;;;;;;;;8.67;8.67;;;;;;;;118020;1189;25276;-58
2023/06/10 05:25:11;;;;;;;;;8.67;8.67;;;;;;;;118155;1184;25541;-58
2023/06/10 05:27:42;;;;;;;;;14.75;10.50;;;;;;;;118069;1178;24874;-58
2023/06/10 05:30:11;;;;;;;;;12.50;10.00;;;;;;;;118026;1180;25504;-58
2023/06/10 05:32:39;;;;;;;;;8.50;8.25;;;;;;;;118016;1177;24907;-57
2023/06/10 05:35:08;;;;;;;;;11.00;7.50;;;;;;;;118042;1177;24767;-57
2023/06/10 05:37:37;;;;;;;;;9.50;9.50;;;;;;;;118077;1183;25501;-57
2023/06/10 05:40:07;;;;;;;;;9.25;9.25;;;;;;;;117924;1188;25041;-58
2023/06/10 05:42:35;;;;;;;;;10.00;9.50;;;;;;;;118015;1182;25598;-57
2023/06/10 05:45:06;;;;;;;;;12.25;11.75;;;;;;;;118054;1177;25105;-57
2023/06/10 05:47:34;;;;;;;;;10.50;9.75;;;;;;;;117991;1177;25009;-59
2023/06/10 05:50:06;;;;;;;;;8.00;8.00;;;;;;;;117916;1187;24792;-59
2023/06/10 05:52:36;;;;;;;;;16.33;11.67;;;;;;;;117991;1187;25679;-57
2023/06/10 05:55:05;;;;;;;;;12.33;10.33;;;;;;;;118014;1189;25331;-57
2023/06/10 05:57:34;;;;;;;;;8.67;8.67;;;;;;;;118059;1176;26068;-57
2023/06/10 06:00:04;;;;;;;;;12.67;10.33;;;;;;;;118083;1177;25873;-58
2023/06/10 06:02:33;;;;;;;;;10.50;10.50;;;;;;;;118024;1177;25200;-59
2023/06/10 06:05:02;;;;;;;;;8.67;8.67;;;;;;;;118054;1177;25089;-59
2023/06/10 06:07:31;;;;;;;;;11.50;9.75;;;;;;;;117983;1177;25611;-59
2023/06/10 06:09:59;;;;;;;;;10.50;10.00;;;;;;;;118007;1178;25543;-59
2023/06/10 06:12:28;;;;;;;;;7.50;7.50;;;;;;;;118062;1176;25528;-59
2023/06/10 06:14:56;;;;;;;;;7.00;7.00;;;;;;;;118082;1177;25216;-59
2023/06/10 06:17:25;;;;;;;;;10.00;10.00;;;;;;;;118029;1177;25208;-59
2023/06/10 06:19:54;;;;;;;;;11.00;10.00;;;;;;;;118052;1177;25671;-59
2023/06/10 06:22:22;;;;;;;;;9.75;9.75;;;;;;;;118043;1176;24922;-60
2023/06/10 06:24:51;;;;;;;;;13.00;11.00;;;;;;;;118073;1187;25342;-59
2023/06/10 06:27:20;;;;;;;;;11.00;10.33;;;;;;;;118075;1189;25571;-59
2023/06/10 06:29:50;;;;;;;;;12.00;11.00;;;;;;;;118027;1189;25406;-59
2023/06/10 06:32:20;;;;;;;;;10.00;9.33;;;;;;;;118018;1177;24933;-59
2023/06/10 06:34:54;;;;;;;;;11.75;10.25;;;;;;;;117988;1189;24854;-59
2023/06/10 06:37:23;;;;;;;;;14.00;11.75;;;;;;;;117852;1178;25489;-58
2023/06/10 06:39:53;;;;;;;;;13.33;9.00;;;;;;;;117939;1178;25387;-59
2023/06/10 06:42:21;;;;;;;;;12.50;9.75;;;;;;;;118026;1178;25351;-60
2023/06/10 06:44:50;;;;;;;;;9.33;9.33;;;;;;;;117982;1178;25788;-59
2023/06/10 06:47:19;;;;;;;;;11.00;11.00;;;;;;;;118063;1188;25258;-60
2023/06/10 06:49:48;;;;;;;;;13.25;9.75;;;;;;;;118070;1187;25125;-60
2023/06/10 06:52:17;;;;;;;;;8.67;8.00;;;;;;;;118062;1176;25307;-60
2023/06/10 06:54:45;;;;;;;;;10.25;10.25;;;;;;;;118021;1189;26333;-59
2023/06/10 06:57:14;;;;;;;;;11.50;9.75;;;;;;;;117963;1183;25132;-59
2023/06/10 06:59:42;;;;;;;;;8.75;8.00;;;;;;;;117976;1177;25273;-60
2023/06/10 07:02:11;;;;;;;;;9.25;8.00;;;;;;;;118006;1189;25358;-59
2023/06/10 07:04:41;;;;;;;;;12.00;9.00;;;;;;;;117992;1177;24930;-59
2023/06/10 07:07:09;;;;;;;;;12.25;9.50;;;;;;;;117909;1189;25122;-59
2023/06/10 07:09:38;;;;;;;;;13.75;11.00;;;;;;;;117946;1177;25115;-60
2023/06/10 07:12:07;;;;;;;;;10.33;10.00;;;;;;;;117837;1177;24768;-64
2023/06/10 07:14:36;;;;;;;;;10.33;7.67;;;;;;;;117900;1178;25522;-60
2023/06/10 07:17:05;;;;;;;;;14.50;9.50;;;;;;;;117914;1177;24924;-60
2023/06/10 07:19:33;;;;;;;;;12.67;11.00;;;;;;;;117955;1186;25604;-60
2023/06/10 07:22:02;;;;;;;;;10.25;9.25;;;;;;;;117863;1191;25702;-60
2023/06/10 07:24:30;;;;;;;;;11.00;11.00;;;;;;;;117939;1177;24780;-60
2023/06/10 07:26:59;;;;;;;;;14.00;10.00;;;;;;;;117907;1187;25283;-60
2023/06/10 07:29:28;;;;;;;;;11.00;11.00;;;;;;;;117892;1178;24735;-60
2023/06/10 07:31:56;;;;;;;;;12.00;10.50;;;;;;;;117868;1190;24861;-59
2023/06/10 07:34:25;;;;;;;;;12.00;9.00;;;;;;;;117937;1190;25003;-59
2023/06/10 07:36:53;;;;;;;;;15.50;12.50;;;;;;;;117913;1190;24862;-58
2023/06/10 07:39:22;;;;;;;;;11.25;11.25;;;;;;;;117849;1180;25396;-59
2023/06/10 07:41:53;;;;;;;;;15.67;10.67;;;;;;;;117932;1177;25025;-58
2023/06/10 07:44:22;;;;;;;;;11.00;8.50;;;;;;;;117926;1190;25033;-58
2023/06/10 07:46:50;;;;;;;;;10.33;8.00;;;;;;;;117905;1190;25472;-59
2023/06/10 07:49:19;;;;;;;;;10.00;9.00;;;;;;;;117885;1190;25298;-59
2023/06/10 07:51:48;;;;;;;;;10.33;9.00;;;;;;;;117915;1187;25140;-59
2023/06/10 07:54:16;;;;;;;;;10.50;10.00;;;;;;;;117923;1177;25082;-59
2023/06/10 07:56:45;;;;;;;;;10.75;8.75;;;;;;;;117902;1177;25396;-58
2023/06/10 07:59:14;;;;;;;;;28.67;23.33;;;;;;;;117861;1184;24774;-58
2023/06/10 08:01:42;;;;;;;;;68.67;54.67;;;;;;;;117825;1177;25160;-59
2023/06/10 08:04:11;;;;;;;;;68.67;54.00;;;;;;;;117838;1187;25656;-59
2023/06/10 08:06:40;;;;;;;;;75.00;59.00;;;;;;;;117868;1191;25658;-59
2023/06/10 08:09:09;;;;;;;;;79.00;62.00;;;;;;;;117857;1181;24908;-59
2023/06/10 08:11:37;;;;;;;;;115.75;108.25;;;;;;;;117866;1191;25002;-58
2023/06/10 08:14:06;;;;;;;;;126.25;110.75;;;;;;;;117797;1180;25624;-59
2023/06/10 08:16:34;;;;;;;;;125.50;117.00;;;;;;;;117824;1191;24949;-59
2023/06/10 08:19:03;;;;;;;;;120.00;111.67;;;;;;;;117888;1191;25068;-59
2023/06/10 08:21:32;;;;;;;;;121.00;112.00;;;;;;;;117809;1177;25801;-58
2023/06/10 08:24:00;;;;;;;;;115.00;106.33;;;;;;;;117894;1191;25608;-57
2023/06/10 08:26:29;;;;;;;;;120.75;112.00;;;;;;;;117867;1178;25544;-58
2023/06/10 08:28:57;;;;;;;;;103.00;91.67;;;;;;;;117938;1177;25135;-58
2023/06/10 08:31:26;;;;;;;;;106.67;95.33;;;;;;;;117837;1178;24923;-59
2023/06/10 08:33:55;;;;;;;;;107.00;100.00;;;;;;;;117888;1191;24744;-60
2023/06/10 08:36:23;;;;;;;;;86.67;77.67;;;;;;;;117866;1177;24846;-58
2023/06/10 08:38:52;;;;;;;;;95.50;83.50;;;;;;;;117847;1177;25342;-59
2023/06/10 08:41:23;;;;;;;;;87.25;79.00;;;;;;;;117834;1179;24900;-55
2023/06/10 08:44:05;;;;;;;;;88.00;76.00;;;;;;;;117866;1191;26041;-60
2023/06/10 08:46:33;;;;;;;;;73.33;62.00;;;;;;;;117871;1177;24727;-57
2023/06/10 08:49:06;;;;;;;;;81.00;69.75;;;;;;;;117882;1191;25049;-68
2023/06/10 08:51:36;;;;;;;;;83.75;67.50;;;;;;;;117831;1177;25395;-57
2023/06/10 08:54:13;;;;;;;;;82.00;63.67;;;;;;;;117839;1177;25653;-72
2023/06/10 08:56:43;;;;;;;;;77.00;62.00;;;;;;;;117851;1179;24974;-62
2023/06/10 08:59:12;;;;;;;;;78.67;62.00;;;;;;;;117872;1191;25124;-59
2023/06/10 09:01:40;;;;;;;;;81.50;64.00;;;;;;;;117883;1189;24828;-57
2023/06/10 09:04:10;;;;;;;;;85.67;65.00;;;;;;;;117851;1181;24830;-58
2023/06/10 09:06:40;;;;;;;;;78.00;59.00;;;;;;;;117928;1190;25396;-60
2023/06/10 09:09:08;;;;;;;;;72.00;57.50;;;;;;;;117889;1178;25391;-57
2023/06/10 09:11:38;;;;;;;;;73.33;59.67;;;;;;;;117888;1186;24831;-57
2023/06/10 09:14:06;;;;;;;;;71.33;57.67;;;;;;;;117876;1177;25568;-68
2023/06/10 09:16:35;;;;;;;;;71.50;59.50;;;;;;;;117828;1178;26586;-55
2023/06/10 09:19:07;;;;;;;;;68.00;52.67;;;;;;;;117823;1187;25449;-57
2023/06/10 09:21:36;;;;;;;;;64.00;51.00;;;;;;;;117832;1191;24914;-59
2023/06/10 09:24:06;;;;;;;;;66.67;52.33;;;;;;;;117827;1181;24815;-59
2023/06/10 09:26:34;;;;;;;;;63.00;49.00;;;;;;;;117929;1177;25280;-60
2023/06/10 09:29:11;;;;;;;;;64.00;51.00;;;;;;;;117868;1180;25277;-58
2023/06/10 09:31:43;;;;;;;;;66.00;52.00;;;;;;;;117827;1187;25342;-58
2023/06/10 09:34:14;;;;;;;;;59.00;47.00;;;;;;;;117893;1191;25568;-58
2023/06/10 09:36:43;;;;;;;;;61.50;48.50;;;;;;;;117884;1177;24845;-58
2023/06/10 09:39:17;;;;;;;;;59.00;47.67;;;;;;;;117806;1179;25613;-58
2023/06/10 09:41:46;;;;;;;;;57.50;48.00;;;;;;;;117842;1191;24828;-58
2023/06/10 09:44:18;;;;;;;;;58.50;48.50;;;;;;;;117879;1191;24905;-58
2023/06/10 09:46:54;;;;;;;;;53.67;42.67;;;;;;;;117847;1191;25428;-57
2023/06/10 09:49:23;;;;;;;;;59.33;48.33;;;;;;;;117829;1183;25343;-58
2023/06/10 09:51:55;;;;;;;;;59.33;45.67;;;;;;;;117844;1180;24729;-57
2023/06/10 09:54:24;;;;;;;;;65.00;46.67;;;;;;;;117853;1183;25187;-59
2023/06/10 09:56:52;;;;;;;;;55.50;44.50;;;;;;;;117856;1180;25134;-59
2023/06/10 09:59:34;;;;;;;;;53.00;39.33;;;;;;;;117863;1179;25236;-59
2023/06/10 10:02:04;;;;;;;;;58.00;47.67;;;;;;;;117850;1181;25161;-59
2023/06/10 10:04:36;;;;;;;;;53.33;42.67;;;;;;;;117896;1183;25464;-59
2023/06/10 10:07:06;;;;;;;;;52.67;45.00;;;;;;;;117919;1180;25471;-59
2023/06/10 10:09:39;;;;;;;;;45.00;39.50;;;;;;;;117850;1177;25508;-59
2023/06/10 10:12:11;;;;;;;;;50.00;41.00;;;;;;;;117878;1179;24690;-59
2023/06/10 10:14:48;;;;;;;;;49.50;40.00;;;;;;;;117813;1178;25319;-59
2023/06/10 10:17:17;;;;;;;;;55.50;40.50;;;;;;;;117829;1191;25276;-59
2023/06/10 10:19:49;;;;;;;;;51.00;39.00;;;;;;;;117878;1179;25751;-60
2023/06/10 10:22:23;;;;;;;;;53.00;43.00;;;;;;;;117870;1179;25558;-59
2023/06/10 10:24:55;;;;;;;;;42.00;37.00;;;;;;;;117811;1191;24710;-59
2023/06/10 10:27:29;;;;;;;;;47.67;36.33;;;;;;;;117813;1181;25387;-60
2023/06/10 10:29:58;;;;;;;;;47.33;39.67;;;;;;;;117852;1179;25520;-58
2023/06/10 10:32:35;;;;;;;;;48.75;40.25;;;;;;;;117863;1191;25555;-59
2023/06/10 10:35:14;;;;;;;;;42.67;32.33;;;;;;;;117851;1178;25908;-59
2023/06/10 10:37:43;;;;;;;;;42.00;35.50;;;;;;;;117823;1177;24922;-59
2023/06/10 10:40:12;;;;;;;;;43.25;35.00;;;;;;;;117892;1190;25474;-59
2023/06/10 10:42:41;;;;;;;;;45.25;37.25;;;;;;;;117894;1190;25131;-60
2023/06/10 10:45:10;;;;;;;;;37.50;33.50;;;;;;;;117895;1177;25531;-57
2023/06/10 10:47:40;;;;;;;;;36.67;35.33;;;;;;;;117805;1177;25347;-59
2023/06/10 10:50:20;;;;;;;;;37.75;33.25;;;;;;;;117943;1179;24919;-59
2023/06/10 10:52:59;;;;;;;;;33.00;32.00;;;;;;;;117850;1177;25322;-58
2023/06/10 10:55:28;;;;;;;;;32.25;29.25;;;;;;;;117920;1178;25267;-60
2023/06/10 10:58:04;;;;;;;;;33.50;30.00;;;;;;;;117913;1178;25002;-59
2023/06/10 11:00:35;;;;;;;;;29.25;26.50;;;;;;;;117850;1178;25586;-58
2023/06/10 11:03:06;;;;;;;;;29.33;27.00;;;;;;;;117866;1191;24947;-59
2023/06/10 11:05:47;;;;;;;;;27.33;23.67;;;;;;;;117858;1177;25487;-59
2023/06/10 11:08:42;;;;;;;;;31.00;27.75;;;;;;;;117865;1191;25019;-59
2023/06/10 11:11:27;;;;;;;;;25.00;23.67;;;;;;;;117876;1191;25097;-59
2023/06/10 11:14:04;;;;;;;;;25.50;25.50;;;;;;;;117871;1177;25491;-59
2023/06/10 11:16:43;;;;;;;;;24.50;23.50;;;;;;;;117854;1177;25206;-59
2023/06/10 11:19:35;;;;;;;;;23.00;21.00;;;;;;;;117835;1179;25531;-60
2023/06/10 11:22:09;;;;;;;;;24.00;21.00;;;;;;;;118171;1186;25061;-60
2023/06/10 11:24:38;;;;;;;;;27.50;22.50;;;;;;;;117951;1177;25558;-59
2023/06/10 11:27:16;;;;;;;;;25.00;21.00;;;;;;;;118003;1189;24959;-59
2023/06/10 11:29:56;;;;;;;;;19.25;18.75;;;;;;;;117997;1181;26414;-60
2023/06/10 11:32:31;;;;;;;;;30.00;20.33;;;;;;;;118015;1189;24883;-59
2023/06/10 11:35:04;;;;;;;;;27.00;22.00;;;;;;;;117981;1189;25716;-60
2023/06/10 11:37:33;;;;;;;;;23.50;21.00;;;;;;;;117966;1189;25418;-60
2023/06/10 11:40:02;;;;;;;;;20.50;18.50;;;;;;;;118097;1177;25562;-60
2023/06/10 11:42:31;;;;;;;;;25.00;23.00;;;;;;;;117971;1189;25132;-60
2023/06/10 11:45:02;;;;;;;;;22.00;21.00;;;;;;;;118079;1183;25193;-60
2023/06/10 11:47:31;;;;;;;;;26.25;25.50;;;;;;;;118035;1178;25780;-60
2023/06/10 11:50:00;;;;;;;;;22.75;19.50;;;;;;;;118015;1179;25549;-59
2023/06/10 11:52:32;;;;;;;;;25.50;22.00;;;;;;;;117961;1189;24794;-59
2023/06/10 11:55:00;;;;;;;;;23.00;19.00;;;;;;;;117913;1190;24966;-59
2023/06/10 11:57:29;;;;;;;;;22.00;21.33;;;;;;;;117929;1179;25546;-58
2023/06/10 12:00:07;;;;;;;;;20.75;16.75;;;;;;;;117951;1183;25072;-58
2023/06/10 12:02:35;;;;;;;;;13.75;13.75;;;;;;;;117973;1177;25251;-59
2023/06/10 12:05:14;;;;;;;;;21.75;21.75;;;;;;;;117939;1180;25191;-57
2023/06/10 12:07:43;;;;;;;;;20.00;19.75;;;;;;;;117927;1178;25153;-58
2023/06/10 12:10:11;;;;;;;;;19.25;18.50;;;;;;;;117926;1177;25701;-58
2023/06/10 12:12:46;;;;;;;;;16.67;14.33;;;;;;;;117956;1177;24904;-58
2023/06/10 12:15:24;;;;;;;;;15.50;15.50;;;;;;;;117844;1180;25457;-58
2023/06/10 12:17:53;;;;;;;;;20.00;18.50;;;;;;;;117902;1190;25667;-58
2023/06/10 12:20:29;;;;;;;;;18.50;16.25;;;;;;;;117867;1186;25482;-58
2023/06/10 12:22:58;;;;;;;;;12.33;12.33;;;;;;;;117852;1190;24786;-59
2023/06/10 12:25:30;;;;;;;;;17.25;14.75;;;;;;;;117848;1187;24748;-59
2023/06/10 12:27:58;;;;;;;;;17.50;16.25;;;;;;;;117834;1179;25609;-59
2023/06/10 12:30:27;;;;;;;;;12.50;12.50;;;;;;;;117825;1177;24774;-59
2023/06/10 12:32:57;;;;;;;;;16.00;13.75;;;;;;;;117918;1183;24740;-60
2023/06/10 12:35:27;;;;;;;;;16.33;13.67;;;;;;;;117832;1178;25450;-59
2023/06/10 12:38:04;;;;;;;;;17.67;13.33;;;;;;;;117877;1177;24907;-59
2023/06/10 12:40:41;;;;;;;;;14.25;12.25;;;;;;;;117853;1177;25457;-60
2023/06/10 12:43:11;;;;;;;;;11.67;11.33;;;;;;;;117887;1177;25573;-59
2023/06/10 12:45:45;;;;;;;;;16.67;15.00;;;;;;;;117866;1177;25512;-58
2023/06/10 12:48:21;;;;;;;;;15.67;13.33;;;;;;;;117914;1177;25281;-57
2023/06/10 12:50:58;;;;;;;;;13.00;12.33;;;;;;;;117831;1180;25536;-59
2023/06/10 12:53:26;;;;;;;;;14.00;11.00;;;;;;;;117924;1177;25085;-59
2023/06/10 12:55:55;;;;;;;;;11.75;9.75;;;;;;;;117891;1190;25075;-59
2023/06/10 12:58:24;;;;;;;;;17.50;13.50;;;;;;;;117928;1177;24706;-59
2023/06/10 13:00:52;;;;;;;;;11.25;9.75;;;;;;;;117944;1190;25662;-59
2023/06/10 13:03:21;;;;;;;;;13.50;12.00;;;;;;;;117767;1177;25649;-59
2023/06/10 13:05:50;;;;;;;;;11.00;9.00;;;;;;;;117822;1191;24852;-59
2023/06/10 13:08:18;;;;;;;;;14.75;13.75;;;;;;;;117837;1191;25569;-59
2023/06/10 13:10:48;;;;;;;;;16.25;11.75;;;;;;;;117887;1177;24934;-59
2023/06/10 13:13:17;;;;;;;;;11.00;11.00;;;;;;;;117892;1179;25144;-59
2023/06/10 13:15:46;;;;;;;;;15.67;12.67;;;;;;;;117951;1177;25648;-57
2023/06/10 13:18:14;;;;;;;;;11.00;11.00;;;;;;;;117909;1190;25236;-57
2023/06/10 13:20:43;;;;;;;;;10.33;10.33;;;;;;;;117892;1179;25032;-57
2023/06/10 13:23:12;;;;;;;;;12.00;12.00;;;;;;;;117865;1179;25209;-58
2023/06/10 13:25:41;;;;;;;;;11.33;11.33;;;;;;;;117896;1190;25206;-63
2023/06/10 13:28:11;;;;;;;;;11.00;9.00;;;;;;;;117849;1177;25202;-58
2023/06/10 13:30:39;;;;;;;;;12.25;9.75;;;;;;;;117950;1190;25275;-58
2023/06/10 13:33:08;;;;;;;;;11.25;11.25;;;;;;;;117887;1178;25343;-57
2023/06/10 13:35:37;;;;;;;;;12.00;12.00;;;;;;;;117900;1177;24848;-57
2023/06/10 13:38:07;;;;;;;;;10.00;10.00;;;;;;;;117907;1190;25553;-57
2023/06/10 13:40:35;;;;;;;;;9.50;9.50;;;;;;;;117943;1177;24899;-57
2023/06/10 13:43:04;;;;;;;;;9.75;9.00;;;;;;;;117851;1187;24770;-57
2023/06/10 13:45:32;;;;;;;;;10.33;9.33;;;;;;;;117890;1186;25247;-57
2023/06/10 13:48:04;;;;;;;;;10.00;10.00;;;;;;;;118012;1189;25186;-59
2023/06/10 13:50:32;;;;;;;;;16.00;12.00;;;;;;;;118029;1177;25432;-57
2023/06/10 13:53:01;;;;;;;;;10.33;10.33;;;;;;;;118048;1177;25806;-57
2023/06/10 13:55:31;;;;;;;;;11.67;10.33;;;;;;;;118036;1189;24691;-59
2023/06/10 13:58:00;;;;;;;;;14.00;11.25;;;;;;;;118000;1180;25303;-58
2023/06/10 14:00:29;;;;;;;;;9.33;9.33;;;;;;;;118091;1178;25728;-56
2023/06/10 14:02:57;;;;;;;;;54.00;43.00;;;;;;;;118160;1175;25586;-57
2023/06/10 14:05:27;;;;;;;;;144.25;128.25;;;;;;;;118165;1177;24957;-57
2023/06/10 14:07:59;;;;;;;;;162.50;148.50;;;;;;;;118137;1176;25098;-57
2023/06/10 14:10:27;;;;;;;;;156.00;141.25;;;;;;;;118176;1188;24705;-57
2023/06/10 14:12:56;;;;;;;;;112.33;98.67;;;;;;;;118179;1177;24984;-57
2023/06/10 14:15:24;;;;;;;;;120.50;108.00;;;;;;;;118080;1189;25230;-57
2023/06/10 14:17:53;;;;;;;;;94.50;84.50;;;;;;;;118216;1177;25732;-63
2023/06/10 14:20:23;;;;;;;;;96.75;82.50;;;;;;;;118186;1180;25612;-56
2023/06/10 14:22:51;;;;;;;;;97.00;88.00;;;;;;;;118142;1177;25677;-59
2023/06/10 14:25:20;;;;;;;;;98.67;84.67;;;;;;;;118172;1177;24874;-59